sensor_id;sensor_type;location;lat;lon;timestamp;P1;durP1;ratioP1;P2;durP2;ratioP2
4748;SDS011;2388;53.582;9.962;2023-02-28T00:00:45;2.30;;;0.70;;
4748;SDS011;2388;53.582;9.962;2023-02-28T00:03:10;1.17;;;0.90;;
4748;SDS011;2388;53.582;9.962;2023-02-28T00:05:36;1.57;;;1.10;;
4748;SDS011;2388;53.582;9.962;2023-02-28T00:08:01;2.30;;;0.80;;
4748;SDS011;2388;53.582;9.962;2023-02-28T00:10:28;2.17;;;1.00;;
4748;SDS011;2388;53.582;9.962;2023-02-28T00:12:56;1.33;;;1.13;;
4748;SDS011;2388;53.582;9.962;2023-02-28T00:15:25;2.30;;;1.03;;
4748;SDS011;2388;53.582;9.962;2023-02-28T00:17:51;7.90;;;1.00;;
4748;SDS011;2388;53.582;9.962;2023-02-28T00:20:17;2.03;;;1.17;;
4748;SDS011;2388;53.582;9.962;2023-02-28T00:22:44;5.53;;;1.10;;
4748;SDS011;2388;53.582;9.962;2023-02-28T00:25:13;1.57;;;0.70;;
4748;SDS011;2388;53.582;9.962;2023-02-28T00:27:40;2.03;;;1.00;;
4748;SDS011;2388;53.582;9.962;2023-02-28T00:30:07;2.80;;;1.17;;
4748;SDS011;2388;53.582;9.962;2023-02-28T00:32:35;2.20;;;1.00;;
4748;SDS011;2388;53.582;9.962;2023-02-28T00:35:01;2.87;;;0.93;;
4748;SDS011;2388;53.582;9.962;2023-02-28T00:37:27;1.40;;;1.30;;
4748;SDS011;2388;53.582;9.962;2023-02-28T00:39:53;2.20;;;0.70;;
4748;SDS011;2388;53.582;9.962;2023-02-28T00:42:18;3.43;;;0.83;;
4748;SDS011;2388;53.582;9.962;2023-02-28T00:44:44;2.13;;;1.50;;
4748;SDS011;2388;53.582;9.962;2023-02-28T00:47:09;1.20;;;1.10;;
4748;SDS011;2388;53.582;9.962;2023-02-28T00:49:35;2.50;;;1.00;;
4748;SDS011;2388;53.582;9.962;2023-02-28T00:52:00;3.27;;;1.10;;
4748;SDS011;2388;53.582;9.962;2023-02-28T00:54:26;5.67;;;1.23;;
4748;SDS011;2388;53.582;9.962;2023-02-28T00:56:52;1.73;;;1.00;;
4748;SDS011;2388;53.582;9.962;2023-02-28T00:59:17;2.30;;;0.87;;
4748;SDS011;2388;53.582;9.962;2023-02-28T01:01:44;2.63;;;0.90;;
4748;SDS011;2388;53.582;9.962;2023-02-28T01:04:10;1.10;;;0.87;;
4748;SDS011;2388;53.582;9.962;2023-02-28T01:06:36;1.30;;;1.10;;
4748;SDS011;2388;53.582;9.962;2023-02-28T01:09:02;3.23;;;0.90;;
4748;SDS011;2388;53.582;9.962;2023-02-28T01:11:29;1.20;;;0.93;;
4748;SDS011;2388;53.582;9.962;2023-02-28T01:13:55;3.60;;;0.97;;
4748;SDS011;2388;53.582;9.962;2023-02-28T01:16:20;1.70;;;0.80;;
4748;SDS011;2388;53.582;9.962;2023-02-28T01:18:46;5.43;;;1.17;;
4748;SDS011;2388;53.582;9.962;2023-02-28T01:21:13;1.27;;;1.13;;
4748;SDS011;2388;53.582;9.962;2023-02-28T01:23:40;1.80;;;1.30;;
4748;SDS011;2388;53.582;9.962;2023-02-28T01:26:10;1.67;;;1.10;;
4748;SDS011;2388;53.582;9.962;2023-02-28T01:28:38;3.43;;;1.00;;
4748;SDS011;2388;53.582;9.962;2023-02-28T01:31:04;1.67;;;0.90;;
4748;SDS011;2388;53.582;9.962;2023-02-28T01:33:30;1.93;;;0.87;;
4748;SDS011;2388;53.582;9.962;2023-02-28T01:35:59;1.10;;;1.00;;
4748;SDS011;2388;53.582;9.962;2023-02-28T01:38:26;0.93;;;0.67;;
4748;SDS011;2388;53.582;9.962;2023-02-28T01:40:52;2.40;;;0.70;;
4748;SDS011;2388;53.582;9.962;2023-02-28T01:45:51;2.27;;;1.13;;
4748;SDS011;2388;53.582;9.962;2023-02-28T01:48:18;1.00;;;1.00;;
4748;SDS011;2388;53.582;9.962;2023-02-28T01:50:50;2.40;;;1.20;;
4748;SDS011;2388;53.582;9.962;2023-02-28T01:53:18;1.20;;;0.90;;
4748;SDS011;2388;53.582;9.962;2023-02-28T01:55:48;2.70;;;1.40;;
4748;SDS011;2388;53.582;9.962;2023-02-28T01:58:17;1.63;;;1.40;;
4748;SDS011;2388;53.582;9.962;2023-02-28T02:00:42;3.00;;;1.80;;
4748;SDS011;2388;53.582;9.962;2023-02-28T02:03:09;4.03;;;1.80;;
4748;SDS011;2388;53.582;9.962;2023-02-28T02:05:39;5.70;;;1.97;;
4748;SDS011;2388;53.582;9.962;2023-02-28T02:08:09;4.33;;;2.00;;
4748;SDS011;2388;53.582;9.962;2023-02-28T02:10:41;7.13;;;3.10;;
4748;SDS011;2388;53.582;9.962;2023-02-28T02:18:54;11.80;;;3.60;;
4748;SDS011;2388;53.582;9.962;2023-02-28T02:41:47;93.77;;;38.30;;
4748;SDS011;2388;53.582;9.962;2023-02-28T02:44:23;110.00;;;43.60;;
4748;SDS011;2388;53.582;9.962;2023-02-28T02:46:53;123.43;;;48.07;;
4748;SDS011;2388;53.582;9.962;2023-02-28T02:49:26;127.43;;;47.23;;
4748;SDS011;2388;53.582;9.962;2023-02-28T02:51:55;83.07;;;35.53;;
4748;SDS011;2388;53.582;9.962;2023-02-28T02:54:23;74.83;;;33.13;;
4748;SDS011;2388;53.582;9.962;2023-02-28T02:56:57;67.70;;;29.50;;
4748;SDS011;2388;53.582;9.962;2023-02-28T02:59:26;76.80;;;29.90;;
4748;SDS011;2388;53.582;9.962;2023-02-28T03:01:55;57.77;;;25.43;;
4748;SDS011;2388;53.582;9.962;2023-02-28T03:04:25;44.17;;;21.75;;
4748;SDS011;2388;53.582;9.962;2023-02-28T03:06:55;53.67;;;20.70;;
4748;SDS011;2388;53.582;9.962;2023-02-28T03:09:21;57.23;;;22.43;;
4748;SDS011;2388;53.582;9.962;2023-02-28T03:11:47;63.45;;;25.83;;
4748;SDS011;2388;53.582;9.962;2023-02-28T03:20:03;65.27;;;27.60;;
4748;SDS011;2388;53.582;9.962;2023-02-28T03:25:52;78.78;;;30.30;;
4748;SDS011;2388;53.582;9.962;2023-02-28T03:28:28;77.25;;;29.05;;
4748;SDS011;2388;53.582;9.962;2023-02-28T03:31:13;67.38;;;29.70;;
4748;SDS011;2388;53.582;9.962;2023-02-28T03:33:44;81.15;;;30.77;;
4748;SDS011;2388;53.582;9.962;2023-02-28T03:36:20;65.75;;;28.40;;
4748;SDS011;2388;53.582;9.962;2023-02-28T03:38:59;62.60;;;23.33;;
4748;SDS011;2388;53.582;9.962;2023-02-28T03:41:36;47.85;;;19.83;;
4748;SDS011;2388;53.582;9.962;2023-02-28T03:44:17;54.97;;;20.60;;
4748;SDS011;2388;53.582;9.962;2023-02-28T03:46:52;37.30;;;17.75;;
4748;SDS011;2388;53.582;9.962;2023-02-28T03:49:28;35.25;;;15.00;;
4748;SDS011;2388;53.582;9.962;2023-02-28T03:52:00;33.65;;;15.85;;
4748;SDS011;2388;53.582;9.962;2023-02-28T03:54:30;35.85;;;16.65;;
4748;SDS011;2388;53.582;9.962;2023-02-28T03:59:38;43.25;;;16.77;;
4748;SDS011;2388;53.582;9.962;2023-02-28T04:02:07;36.03;;;16.10;;
4748;SDS011;2388;53.582;9.962;2023-02-28T04:04:33;38.27;;;17.17;;
4748;SDS011;2388;53.582;9.962;2023-02-28T04:07:17;34.00;;;15.50;;
4748;SDS011;2388;53.582;9.962;2023-02-28T04:09:43;42.33;;;15.43;;
4748;SDS011;2388;53.582;9.962;2023-02-28T04:12:08;36.93;;;14.10;;
4748;SDS011;2388;53.582;9.962;2023-02-28T04:14:34;31.43;;;13.37;;
4748;SDS011;2388;53.582;9.962;2023-02-28T04:16:59;28.57;;;12.73;;
4748;SDS011;2388;53.582;9.962;2023-02-28T04:19:25;26.33;;;11.90;;
4748;SDS011;2388;53.582;9.962;2023-02-28T04:21:51;27.53;;;12.17;;
4748;SDS011;2388;53.582;9.962;2023-02-28T04:24:19;23.20;;;11.90;;
4748;SDS011;2388;53.582;9.962;2023-02-28T04:26:47;23.42;;;11.30;;
4748;SDS011;2388;53.582;9.962;2023-02-28T04:29:19;23.90;;;9.90;;
4748;SDS011;2388;53.582;9.962;2023-02-28T04:31:46;20.08;;;9.13;;
4748;SDS011;2388;53.582;9.962;2023-02-28T04:34:12;19.90;;;8.43;;
4748;SDS011;2388;53.582;9.962;2023-02-28T04:36:37;19.53;;;9.37;;
4748;SDS011;2388;53.582;9.962;2023-02-28T04:39:03;18.30;;;8.33;;
4748;SDS011;2388;53.582;9.962;2023-02-28T04:41:29;14.93;;;6.90;;
4748;SDS011;2388;53.582;9.962;2023-02-28T04:43:54;14.50;;;6.57;;
4748;SDS011;2388;53.582;9.962;2023-02-28T04:46:21;16.23;;;6.90;;
4748;SDS011;2388;53.582;9.962;2023-02-28T04:48:47;15.25;;;6.20;;
4748;SDS011;2388;53.582;9.962;2023-02-28T04:51:13;11.50;;;6.60;;
4748;SDS011;2388;53.582;9.962;2023-02-28T04:53:40;13.50;;;5.95;;
4748;SDS011;2388;53.582;9.962;2023-02-28T04:56:07;14.07;;;6.40;;
4748;SDS011;2388;53.582;9.962;2023-02-28T04:58:35;12.20;;;5.85;;
4748;SDS011;2388;53.582;9.962;2023-02-28T05:01:05;14.57;;;6.40;;
4748;SDS011;2388;53.582;9.962;2023-02-28T05:03:40;10.32;;;6.18;;
4748;SDS011;2388;53.582;9.962;2023-02-28T05:06:06;9.63;;;5.77;;
4748;SDS011;2388;53.582;9.962;2023-02-28T05:08:35;13.43;;;6.13;;
4748;SDS011;2388;53.582;9.962;2023-02-28T05:11:01;10.70;;;6.23;;
4748;SDS011;2388;53.582;9.962;2023-02-28T05:13:28;9.65;;;6.18;;
4748;SDS011;2388;53.582;9.962;2023-02-28T05:15:54;9.40;;;5.60;;
4748;SDS011;2388;53.582;9.962;2023-02-28T05:18:20;12.68;;;5.88;;
4748;SDS011;2388;53.582;9.962;2023-02-28T05:20:45;10.60;;;5.63;;
4748;SDS011;2388;53.582;9.962;2023-02-28T05:23:12;11.87;;;5.53;;
4748;SDS011;2388;53.582;9.962;2023-02-28T05:25:38;14.32;;;6.68;;
4748;SDS011;2388;53.582;9.962;2023-02-28T05:28:05;10.70;;;5.10;;
4748;SDS011;2388;53.582;9.962;2023-02-28T05:30:30;12.67;;;6.07;;
4748;SDS011;2388;53.582;9.962;2023-02-28T05:32:56;11.32;;;5.88;;
4748;SDS011;2388;53.582;9.962;2023-02-28T05:35:22;12.88;;;7.00;;
4748;SDS011;2388;53.582;9.962;2023-02-28T05:37:48;9.60;;;5.93;;
4748;SDS011;2388;53.582;9.962;2023-02-28T05:40:14;7.93;;;5.37;;
4748;SDS011;2388;53.582;9.962;2023-02-28T05:42:40;8.73;;;4.82;;
4748;SDS011;2388;53.582;9.962;2023-02-28T05:45:06;10.73;;;5.30;;
4748;SDS011;2388;53.582;9.962;2023-02-28T05:47:33;8.80;;;5.47;;
4748;SDS011;2388;53.582;9.962;2023-02-28T05:49:58;11.50;;;5.53;;
4748;SDS011;2388;53.582;9.962;2023-02-28T05:52:25;11.98;;;4.50;;
4748;SDS011;2388;53.582;9.962;2023-02-28T05:54:50;12.13;;;5.10;;
4748;SDS011;2388;53.582;9.962;2023-02-28T05:57:16;10.20;;;5.10;;
4748;SDS011;2388;53.582;9.962;2023-02-28T05:59:41;9.47;;;4.90;;
4748;SDS011;2388;53.582;9.962;2023-02-28T06:02:13;11.27;;;5.17;;
4748;SDS011;2388;53.582;9.962;2023-02-28T06:04:40;9.52;;;4.63;;
4748;SDS011;2388;53.582;9.962;2023-02-28T06:07:08;10.75;;;5.00;;
4748;SDS011;2388;53.582;9.962;2023-02-28T06:09:34;11.88;;;5.55;;
4748;SDS011;2388;53.582;9.962;2023-02-28T06:12:00;11.15;;;5.03;;
4748;SDS011;2388;53.582;9.962;2023-02-28T06:14:32;6.40;;;4.28;;
4748;SDS011;2388;53.582;9.962;2023-02-28T06:16:59;11.38;;;5.35;;
4748;SDS011;2388;53.582;9.962;2023-02-28T06:19:25;12.20;;;5.50;;
4748;SDS011;2388;53.582;9.962;2023-02-28T06:21:51;10.73;;;5.90;;
4748;SDS011;2388;53.582;9.962;2023-02-28T06:24:17;12.52;;;4.93;;
4748;SDS011;2388;53.582;9.962;2023-02-28T06:26:47;8.57;;;4.68;;
4748;SDS011;2388;53.582;9.962;2023-02-28T06:29:13;7.38;;;4.57;;
4748;SDS011;2388;53.582;9.962;2023-02-28T06:31:43;7.47;;;5.25;;
4748;SDS011;2388;53.582;9.962;2023-02-28T06:34:09;8.25;;;5.13;;
4748;SDS011;2388;53.582;9.962;2023-02-28T06:36:36;13.48;;;4.88;;
4748;SDS011;2388;53.582;9.962;2023-02-28T06:39:02;9.30;;;5.57;;
4748;SDS011;2388;53.582;9.962;2023-02-28T06:41:28;11.30;;;5.20;;
4748;SDS011;2388;53.582;9.962;2023-02-28T06:43:54;8.30;;;5.20;;
4748;SDS011;2388;53.582;9.962;2023-02-28T06:46:19;11.47;;;4.90;;
4748;SDS011;2388;53.582;9.962;2023-02-28T06:48:45;12.40;;;4.83;;
4748;SDS011;2388;53.582;9.962;2023-02-28T06:51:13;10.30;;;5.93;;
4748;SDS011;2388;53.582;9.962;2023-02-28T06:53:40;12.18;;;4.95;;
4748;SDS011;2388;53.582;9.962;2023-02-28T06:56:07;10.97;;;5.33;;
4748;SDS011;2388;53.582;9.962;2023-02-28T06:58:34;9.50;;;5.35;;
4748;SDS011;2388;53.582;9.962;2023-02-28T07:01:00;8.90;;;4.80;;
4748;SDS011;2388;53.582;9.962;2023-02-28T07:03:26;10.50;;;5.18;;
4748;SDS011;2388;53.582;9.962;2023-02-28T07:05:52;10.43;;;4.90;;
4748;SDS011;2388;53.582;9.962;2023-02-28T07:08:17;13.40;;;5.87;;
4748;SDS011;2388;53.582;9.962;2023-02-28T07:10:43;13.40;;;5.70;;
4748;SDS011;2388;53.582;9.962;2023-02-28T07:13:09;9.30;;;5.40;;
4748;SDS011;2388;53.582;9.962;2023-02-28T07:15:35;8.13;;;5.63;;
4748;SDS011;2388;53.582;9.962;2023-02-28T07:18:01;14.50;;;5.10;;
4748;SDS011;2388;53.582;9.962;2023-02-28T07:20:28;12.48;;;6.78;;
4748;SDS011;2388;53.582;9.962;2023-02-28T07:22:54;14.07;;;6.20;;
4748;SDS011;2388;53.582;9.962;2023-02-28T07:25:23;17.58;;;6.63;;
4748;SDS011;2388;53.582;9.962;2023-02-28T07:27:49;10.10;;;6.20;;
4748;SDS011;2388;53.582;9.962;2023-02-28T07:30:15;9.17;;;5.10;;
4748;SDS011;2388;53.582;9.962;2023-02-28T07:32:42;11.15;;;6.25;;
4748;SDS011;2388;53.582;9.962;2023-02-28T07:35:07;13.80;;;6.20;;
4748;SDS011;2388;53.582;9.962;2023-02-28T07:37:33;14.80;;;5.63;;
4748;SDS011;2388;53.582;9.962;2023-02-28T07:40:02;14.40;;;6.78;;
4748;SDS011;2388;53.582;9.962;2023-02-28T07:42:33;21.40;;;6.13;;
4748;SDS011;2388;53.582;9.962;2023-02-28T07:44:59;10.13;;;4.43;;
4748;SDS011;2388;53.582;9.962;2023-02-28T07:47:25;12.97;;;4.90;;
4748;SDS011;2388;53.582;9.962;2023-02-28T07:49:50;8.97;;;5.27;;
4748;SDS011;2388;53.582;9.962;2023-02-28T07:52:16;10.97;;;4.87;;
4748;SDS011;2388;53.582;9.962;2023-02-28T07:54:41;8.30;;;3.73;;
4748;SDS011;2388;53.582;9.962;2023-02-28T07:57:06;6.30;;;4.07;;
4748;SDS011;2388;53.582;9.962;2023-02-28T07:59:32;7.57;;;3.40;;
4748;SDS011;2388;53.582;9.962;2023-02-28T08:01:58;5.57;;;3.07;;
4748;SDS011;2388;53.582;9.962;2023-02-28T08:04:24;8.23;;;3.83;;
4748;SDS011;2388;53.582;9.962;2023-02-28T08:06:49;10.57;;;3.17;;
4748;SDS011;2388;53.582;9.962;2023-02-28T08:09:17;5.47;;;3.20;;
4748;SDS011;2388;53.582;9.962;2023-02-28T08:11:43;5.83;;;3.20;;
4748;SDS011;2388;53.582;9.962;2023-02-28T08:14:08;3.30;;;2.63;;
4748;SDS011;2388;53.582;9.962;2023-02-28T08:16:34;8.00;;;2.33;;
4748;SDS011;2388;53.582;9.962;2023-02-28T08:19:00;4.40;;;2.67;;
4748;SDS011;2388;53.582;9.962;2023-02-28T08:21:25;2.60;;;2.40;;
4748;SDS011;2388;53.582;9.962;2023-02-28T08:23:51;5.53;;;2.20;;
4748;SDS011;2388;53.582;9.962;2023-02-28T08:28:46;10.55;;;2.80;;
4748;SDS011;2388;53.582;9.962;2023-02-28T08:31:13;6.93;;;2.30;;
4748;SDS011;2388;53.582;9.962;2023-02-28T08:33:40;3.00;;;2.42;;
4748;SDS011;2388;53.582;9.962;2023-02-28T08:36:07;3.35;;;2.60;;
4748;SDS011;2388;53.582;9.962;2023-02-28T08:38:33;6.97;;;2.53;;
4748;SDS011;2388;53.582;9.962;2023-02-28T08:41:00;1.60;;;1.50;;
4748;SDS011;2388;53.582;9.962;2023-02-28T08:43:28;3.05;;;1.75;;
4748;SDS011;2388;53.582;9.962;2023-02-28T08:45:57;2.77;;;1.50;;
4748;SDS011;2388;53.582;9.962;2023-02-28T08:48:23;7.32;;;1.52;;
4748;SDS011;2388;53.582;9.962;2023-02-28T08:50:59;4.72;;;1.60;;
4748;SDS011;2388;53.582;9.962;2023-02-28T08:53:26;1.60;;;1.20;;
4748;SDS011;2388;53.582;9.962;2023-02-28T08:55:56;3.17;;;1.00;;
4748;SDS011;2388;53.582;9.962;2023-02-28T08:58:25;7.30;;;0.95;;
4748;SDS011;2388;53.582;9.962;2023-02-28T09:00:52;4.80;;;1.05;;
4748;SDS011;2388;53.582;9.962;2023-02-28T09:03:17;1.20;;;0.80;;
4748;SDS011;2388;53.582;9.962;2023-02-28T09:05:53;6.03;;;1.80;;
4748;SDS011;2388;53.582;9.962;2023-02-28T09:08:23;3.88;;;1.70;;
4748;SDS011;2388;53.582;9.962;2023-02-28T09:10:50;2.28;;;1.10;;
4748;SDS011;2388;53.582;9.962;2023-02-28T09:13:16;1.33;;;0.70;;
4748;SDS011;2388;53.582;9.962;2023-02-28T09:15:42;1.67;;;0.77;;
4748;SDS011;2388;53.582;9.962;2023-02-28T09:18:07;1.07;;;0.90;;
4748;SDS011;2388;53.582;9.962;2023-02-28T09:20:32;1.67;;;0.60;;
4748;SDS011;2388;53.582;9.962;2023-02-28T09:22:58;1.30;;;1.10;;
4748;SDS011;2388;53.582;9.962;2023-02-28T09:25:24;0.70;;;0.70;;
4748;SDS011;2388;53.582;9.962;2023-02-28T09:27:49;1.73;;;0.90;;
4748;SDS011;2388;53.582;9.962;2023-02-28T09:30:15;0.83;;;0.50;;
4748;SDS011;2388;53.582;9.962;2023-02-28T09:32:41;2.10;;;0.60;;
4748;SDS011;2388;53.582;9.962;2023-02-28T09:35:06;0.77;;;0.50;;
4748;SDS011;2388;53.582;9.962;2023-02-28T09:37:38;1.88;;;0.80;;
4748;SDS011;2388;53.582;9.962;2023-02-28T09:40:03;3.23;;;0.70;;
4748;SDS011;2388;53.582;9.962;2023-02-28T09:42:31;1.25;;;1.15;;
4748;SDS011;2388;53.582;9.962;2023-02-28T09:44:58;0.70;;;0.52;;
4748;SDS011;2388;53.582;9.962;2023-02-28T09:49:56;0.95;;;0.75;;
4748;SDS011;2388;53.582;9.962;2023-02-28T09:52:27;0.90;;;0.60;;
4748;SDS011;2388;53.582;9.962;2023-02-28T09:54:55;1.10;;;0.80;;
4748;SDS011;2388;53.582;9.962;2023-02-28T09:57:41;2.05;;;0.90;;
4748;SDS011;2388;53.582;9.962;2023-02-28T10:00:12;1.20;;;0.80;;
4748;SDS011;2388;53.582;9.962;2023-02-28T10:05:20;1.00;;;0.90;;
4748;SDS011;2388;53.582;9.962;2023-02-28T10:08:01;1.10;;;0.90;;
4748;SDS011;2388;53.582;9.962;2023-02-28T10:10:44;1.20;;;0.87;;
4748;SDS011;2388;53.582;9.962;2023-02-28T10:13:23;1.47;;;1.37;;
4748;SDS011;2388;53.582;9.962;2023-02-28T10:15:51;11.60;;;8.53;;
4748;SDS011;2388;53.582;9.962;2023-02-28T10:18:23;3.90;;;3.40;;
4748;SDS011;2388;53.582;9.962;2023-02-28T10:20:52;2.70;;;1.73;;
4748;SDS011;2388;53.582;9.962;2023-02-28T10:23:21;1.65;;;0.82;;
4748;SDS011;2388;53.582;9.962;2023-02-28T10:25:59;1.00;;;0.80;;
4748;SDS011;2388;53.582;9.962;2023-02-28T10:28:30;1.38;;;0.70;;
4748;SDS011;2388;53.582;9.962;2023-02-28T10:30:56;1.00;;;0.60;;
4748;SDS011;2388;53.582;9.962;2023-02-28T10:33:24;1.77;;;0.80;;
4748;SDS011;2388;53.582;9.962;2023-02-28T10:35:50;1.20;;;0.80;;
4748;SDS011;2388;53.582;9.962;2023-02-28T10:38:18;2.33;;;0.60;;
4748;SDS011;2388;53.582;9.962;2023-02-28T10:40:49;1.50;;;0.83;;
4748;SDS011;2388;53.582;9.962;2023-02-28T10:56:00;1.23;;;0.80;;
4748;SDS011;2388;53.582;9.962;2023-02-28T10:58:30;1.00;;;0.77;;
4748;SDS011;2388;53.582;9.962;2023-02-28T11:01:19;2.13;;;1.00;;
4748;SDS011;2388;53.582;9.962;2023-02-28T11:03:47;2.87;;;0.87;;
4748;SDS011;2388;53.582;9.962;2023-02-28T11:06:15;1.47;;;0.70;;
4748;SDS011;2388;53.582;9.962;2023-02-28T11:08:50;2.63;;;1.40;;
4748;SDS011;2388;53.582;9.962;2023-02-28T11:11:18;1.60;;;1.40;;
4748;SDS011;2388;53.582;9.962;2023-02-28T11:13:46;2.50;;;2.30;;
4748;SDS011;2388;53.582;9.962;2023-02-28T11:16:15;2.73;;;0.90;;
4748;SDS011;2388;53.582;9.962;2023-02-28T11:19:00;2.17;;;0.70;;
4748;SDS011;2388;53.582;9.962;2023-02-28T11:21:27;0.80;;;0.80;;
4748;SDS011;2388;53.582;9.962;2023-02-28T11:23:59;0.93;;;0.90;;
4748;SDS011;2388;53.582;9.962;2023-02-28T11:26:40;3.00;;;0.80;;
4748;SDS011;2388;53.582;9.962;2023-02-28T11:29:12;4.90;;;1.80;;
4748;SDS011;2388;53.582;9.962;2023-02-28T11:32:01;0.90;;;0.80;;
4748;SDS011;2388;53.582;9.962;2023-02-28T11:34:29;1.10;;;1.00;;
4748;SDS011;2388;53.582;9.962;2023-02-28T11:36:57;4.60;;;1.10;;
4748;SDS011;2388;53.582;9.962;2023-02-28T11:39:24;5.90;;;1.23;;
4748;SDS011;2388;53.582;9.962;2023-02-28T11:47:34;0.90;;;0.90;;
4748;SDS011;2388;53.582;9.962;2023-02-28T11:52:51;1.30;;;0.83;;
4748;SDS011;2388;53.582;9.962;2023-02-28T11:55:20;1.00;;;0.77;;
4748;SDS011;2388;53.582;9.962;2023-02-28T12:01:05;3.43;;;1.30;;
4748;SDS011;2388;53.582;9.962;2023-02-28T12:03:55;0.87;;;0.87;;
4748;SDS011;2388;53.582;9.962;2023-02-28T12:09:34;1.10;;;0.80;;
4748;SDS011;2388;53.582;9.962;2023-02-28T12:12:32;1.50;;;1.20;;
4748;SDS011;2388;53.582;9.962;2023-02-28T12:20:46;1.60;;;1.40;;
4748;SDS011;2388;53.582;9.962;2023-02-28T12:26:13;2.90;;;1.33;;
4748;SDS011;2388;53.582;9.962;2023-02-28T12:28:47;1.43;;;1.13;;
4748;SDS011;2388;53.582;9.962;2023-02-28T12:31:20;2.60;;;1.53;;
4748;SDS011;2388;53.582;9.962;2023-02-28T12:33:53;2.70;;;1.40;;
4748;SDS011;2388;53.582;9.962;2023-02-28T12:36:21;2.80;;;1.80;;
4748;SDS011;2388;53.582;9.962;2023-02-28T12:38:51;8.97;;;1.43;;
4748;SDS011;2388;53.582;9.962;2023-02-28T12:41:29;6.20;;;1.77;;
4748;SDS011;2388;53.582;9.962;2023-02-28T12:44:05;1.33;;;1.23;;
4748;SDS011;2388;53.582;9.962;2023-02-28T12:46:41;1.77;;;0.90;;
4748;SDS011;2388;53.582;9.962;2023-02-28T12:49:12;1.43;;;1.33;;
4748;SDS011;2388;53.582;9.962;2023-02-28T12:51:41;1.53;;;1.03;;
4748;SDS011;2388;53.582;9.962;2023-02-28T13:02:30;1.40;;;1.10;;
4748;SDS011;2388;53.582;9.962;2023-02-28T13:08:22;5.80;;;1.40;;
4748;SDS011;2388;53.582;9.962;2023-02-28T13:10:52;1.13;;;1.10;;
4748;SDS011;2388;53.582;9.962;2023-02-28T13:13:21;3.40;;;1.30;;
4748;SDS011;2388;53.582;9.962;2023-02-28T13:16:07;2.47;;;1.03;;
4748;SDS011;2388;53.582;9.962;2023-02-28T13:18:37;1.47;;;1.37;;
4748;SDS011;2388;53.582;9.962;2023-02-28T13:21:06;2.40;;;1.27;;
4748;SDS011;2388;53.582;9.962;2023-02-28T13:23:41;2.23;;;1.80;;
4748;SDS011;2388;53.582;9.962;2023-02-28T13:29:20;2.27;;;1.63;;
4748;SDS011;2388;53.582;9.962;2023-02-28T13:34:30;2.27;;;1.40;;
4748;SDS011;2388;53.582;9.962;2023-02-28T13:37:30;4.33;;;1.60;;
4748;SDS011;2388;53.582;9.962;2023-02-28T14:01:15;4.40;;;1.70;;
4748;SDS011;2388;53.582;9.962;2023-02-28T14:04:01;3.13;;;1.90;;
4748;SDS011;2388;53.582;9.962;2023-02-28T14:06:51;1.90;;;1.60;;
4748;SDS011;2388;53.582;9.962;2023-02-28T14:09:26;2.27;;;1.30;;
4748;SDS011;2388;53.582;9.962;2023-02-28T14:11:55;5.10;;;1.33;;
4748;SDS011;2388;53.582;9.962;2023-02-28T14:17:03;10.40;;;1.60;;
4748;SDS011;2388;53.582;9.962;2023-02-28T14:19:31;3.43;;;1.50;;
4748;SDS011;2388;53.582;9.962;2023-02-28T14:24:59;4.13;;;1.50;;
4748;SDS011;2388;53.582;9.962;2023-02-28T14:30:40;1.53;;;1.40;;
4748;SDS011;2388;53.582;9.962;2023-02-28T14:33:22;3.57;;;1.80;;
4748;SDS011;2388;53.582;9.962;2023-02-28T14:35:57;13.33;;;1.93;;
4748;SDS011;2388;53.582;9.962;2023-02-28T14:38:33;1.60;;;1.50;;
4748;SDS011;2388;53.582;9.962;2023-02-28T14:41:05;1.67;;;1.57;;
4748;SDS011;2388;53.582;9.962;2023-02-28T14:43:55;2.40;;;1.63;;
4748;SDS011;2388;53.582;9.962;2023-02-28T14:46:22;1.67;;;1.50;;
4748;SDS011;2388;53.582;9.962;2023-02-28T14:48:52;5.57;;;2.17;;
4748;SDS011;2388;53.582;9.962;2023-02-28T14:51:18;2.00;;;1.33;;
4748;SDS011;2388;53.582;9.962;2023-02-28T14:53:48;3.33;;;1.43;;
4748;SDS011;2388;53.582;9.962;2023-02-28T14:56:19;1.70;;;1.60;;
4748;SDS011;2388;53.582;9.962;2023-02-28T14:58:51;2.83;;;1.43;;
4748;SDS011;2388;53.582;9.962;2023-02-28T15:01:19;2.43;;;1.43;;
4748;SDS011;2388;53.582;9.962;2023-02-28T15:03:47;3.13;;;1.97;;
4748;SDS011;2388;53.582;9.962;2023-02-28T15:06:16;2.87;;;1.60;;
4748;SDS011;2388;53.582;9.962;2023-02-28T15:08:45;2.20;;;1.70;;
4748;SDS011;2388;53.582;9.962;2023-02-28T15:11:13;2.80;;;1.30;;
4748;SDS011;2388;53.582;9.962;2023-02-28T15:16:17;2.50;;;1.57;;
4748;SDS011;2388;53.582;9.962;2023-02-28T15:18:51;5.73;;;1.30;;
4748;SDS011;2388;53.582;9.962;2023-02-28T15:21:22;3.03;;;1.63;;
4748;SDS011;2388;53.582;9.962;2023-02-28T15:23:51;3.47;;;1.67;;
4748;SDS011;2388;53.582;9.962;2023-02-28T15:26:22;2.63;;;1.50;;
4748;SDS011;2388;53.582;9.962;2023-02-28T15:28:52;2.43;;;1.60;;
4748;SDS011;2388;53.582;9.962;2023-02-28T15:31:34;3.73;;;1.70;;
4748;SDS011;2388;53.582;9.962;2023-02-28T15:34:05;1.77;;;1.33;;
4748;SDS011;2388;53.582;9.962;2023-02-28T15:36:32;2.50;;;1.47;;
4748;SDS011;2388;53.582;9.962;2023-02-28T15:39:02;2.40;;;1.43;;
4748;SDS011;2388;53.582;9.962;2023-02-28T15:41:35;4.60;;;1.80;;
4748;SDS011;2388;53.582;9.962;2023-02-28T15:44:23;3.10;;;1.70;;
4748;SDS011;2388;53.582;9.962;2023-02-28T15:49:27;1.80;;;1.70;;
4748;SDS011;2388;53.582;9.962;2023-02-28T15:51:56;2.53;;;1.73;;
4748;SDS011;2388;53.582;9.962;2023-02-28T15:54:27;3.93;;;1.97;;
4748;SDS011;2388;53.582;9.962;2023-02-28T15:56:56;5.73;;;1.60;;
4748;SDS011;2388;53.582;9.962;2023-02-28T15:59:29;4.60;;;1.77;;
4748;SDS011;2388;53.582;9.962;2023-02-28T16:02:29;2.60;;;1.10;;
4748;SDS011;2388;53.582;9.962;2023-02-28T16:04:58;2.13;;;1.50;;
4748;SDS011;2388;53.582;9.962;2023-02-28T16:07:34;2.40;;;1.80;;
4748;SDS011;2388;53.582;9.962;2023-02-28T16:10:04;8.93;;;1.70;;
4748;SDS011;2388;53.582;9.962;2023-02-28T16:12:31;1.73;;;1.27;;
4748;SDS011;2388;53.582;9.962;2023-02-28T16:14:59;3.10;;;1.63;;
4748;SDS011;2388;53.582;9.962;2023-02-28T16:17:32;5.83;;;1.50;;
4748;SDS011;2388;53.582;9.962;2023-02-28T16:20:00;4.10;;;1.53;;
4748;SDS011;2388;53.582;9.962;2023-02-28T16:22:26;1.60;;;1.43;;
4748;SDS011;2388;53.582;9.962;2023-02-28T16:24:51;2.60;;;2.00;;
4748;SDS011;2388;53.582;9.962;2023-02-28T16:27:19;4.07;;;2.60;;
4748;SDS011;2388;53.582;9.962;2023-02-28T16:29:46;2.67;;;1.80;;
4748;SDS011;2388;53.582;9.962;2023-02-28T16:32:14;1.67;;;1.43;;
4748;SDS011;2388;53.582;9.962;2023-02-28T16:34:40;2.93;;;1.07;;
4748;SDS011;2388;53.582;9.962;2023-02-28T16:37:11;1.90;;;1.37;;
4748;SDS011;2388;53.582;9.962;2023-02-28T16:39:38;10.60;;;1.73;;
4748;SDS011;2388;53.582;9.962;2023-02-28T16:42:04;1.83;;;1.10;;
4748;SDS011;2388;53.582;9.962;2023-02-28T16:44:31;3.83;;;1.10;;
4748;SDS011;2388;53.582;9.962;2023-02-28T16:46:59;4.73;;;1.30;;
4748;SDS011;2388;53.582;9.962;2023-02-28T16:49:25;7.63;;;0.97;;
4748;SDS011;2388;53.582;9.962;2023-02-28T16:51:51;2.47;;;1.70;;
4748;SDS011;2388;53.582;9.962;2023-02-28T16:54:17;2.80;;;1.53;;
4748;SDS011;2388;53.582;9.962;2023-02-28T16:56:43;4.60;;;1.40;;
4748;SDS011;2388;53.582;9.962;2023-02-28T16:59:11;1.60;;;1.40;;
4748;SDS011;2388;53.582;9.962;2023-02-28T17:01:37;1.73;;;1.40;;
4748;SDS011;2388;53.582;9.962;2023-02-28T17:04:03;1.40;;;1.23;;
4748;SDS011;2388;53.582;9.962;2023-02-28T17:06:29;1.83;;;1.40;;
4748;SDS011;2388;53.582;9.962;2023-02-28T17:08:56;1.93;;;1.73;;
4748;SDS011;2388;53.582;9.962;2023-02-28T17:11:22;3.60;;;1.67;;
4748;SDS011;2388;53.582;9.962;2023-02-28T17:13:49;3.10;;;1.40;;
4748;SDS011;2388;53.582;9.962;2023-02-28T17:16:48;3.37;;;1.80;;
4748;SDS011;2388;53.582;9.962;2023-02-28T17:19:09;4.07;;;1.60;;
4748;SDS011;2388;53.582;9.962;2023-02-28T17:21:41;1.83;;;1.73;;
4748;SDS011;2388;53.582;9.962;2023-02-28T17:24:07;2.77;;;1.90;;
4748;SDS011;2388;53.582;9.962;2023-02-28T17:26:33;1.80;;;1.33;;
4748;SDS011;2388;53.582;9.962;2023-02-28T17:28:58;4.50;;;1.97;;
4748;SDS011;2388;53.582;9.962;2023-02-28T17:31:24;2.07;;;1.53;;
4748;SDS011;2388;53.582;9.962;2023-02-28T17:33:51;2.00;;;1.60;;
4748;SDS011;2388;53.582;9.962;2023-02-28T17:36:20;2.47;;;1.40;;
4748;SDS011;2388;53.582;9.962;2023-02-28T17:38:48;1.87;;;1.77;;